createdAt,value
2022-12-19T00:00:14.744Z,78.53
2022-12-19T00:01:19.543Z,79.80
2022-12-19T00:02:25.429Z,79.68
2022-12-19T00:03:27.282Z,79.80
2022-12-19T00:04:30.285Z,79.13
2022-12-19T00:05:35.831Z,78.05
2022-12-19T00:06:41.342Z,77.83
2022-12-19T00:07:48.410Z,77.53
2022-12-19T00:08:52.648Z,77.66
2022-12-19T00:09:54.223Z,77.22
2022-12-19T00:10:59.448Z,77.75
2022-12-19T00:12:02.449Z,78.04
2022-12-19T00:13:05.040Z,77.59
2022-12-19T00:14:07.683Z,77.71
2022-12-19T00:15:10.770Z,78.07
2022-12-19T00:16:14.337Z,77.26
2022-12-19T00:17:18.887Z,77.93
2022-12-19T00:18:20.611Z,78.21
2022-12-19T00:19:24.749Z,79.67
2022-12-19T00:20:26.383Z,80.03
2022-12-19T00:21:30.740Z,78.86
2022-12-19T00:22:32.915Z,78.60
2022-12-19T00:23:36.135Z,77.67
2022-12-19T00:24:37.954Z,77.78
2022-12-19T00:25:40.527Z,77.03
2022-12-19T00:26:43.153Z,76.85
2022-12-19T00:27:47.233Z,76.65
2022-12-19T00:28:50.860Z,77.23
2022-12-19T00:29:53.428Z,78.00
2022-12-19T00:30:55.630Z,77.28
2022-12-19T00:31:59.203Z,78.42
2022-12-19T00:33:02.616Z,78.24
2022-12-19T00:34:05.477Z,78.05
2022-12-19T00:35:07.504Z,78.14
2022-12-19T00:36:14.457Z,78.66
2022-12-19T00:37:18.512Z,77.77
2022-12-19T00:38:21.104Z,78.07
2022-12-19T00:39:22.924Z,77.63
2022-12-19T00:40:25.456Z,76.83
2022-12-19T00:41:30.415Z,76.30
2022-12-19T00:42:33.121Z,76.79
2022-12-19T00:43:36.519Z,78.95
2022-12-19T00:44:39.128Z,79.95
2022-12-19T00:45:40.833Z,80.46
2022-12-19T00:46:51.035Z,79.35
2022-12-19T00:47:54.843Z,79.11
2022-12-19T00:48:57.405Z,78.43
2022-12-19T00:49:59.016Z,77.73
2022-12-19T00:51:02.219Z,77.03
2022-12-19T00:52:04.364Z,76.92
2022-12-19T00:53:06.908Z,76.88
2022-12-19T00:54:09.890Z,76.72
2022-12-19T00:55:18.783Z,77.00
2022-12-19T00:56:22.658Z,76.34
2022-12-19T00:57:25.224Z,76.12
2022-12-19T00:58:27.131Z,76.38
2022-12-19T00:59:31.251Z,76.10
2022-12-19T01:00:33.143Z,76.96
2022-12-19T01:01:38.844Z,77.73
2022-12-19T01:02:40.723Z,77.37
2022-12-19T01:03:58.011Z,77.19
2022-12-19T01:05:06.005Z,77.91
2022-12-19T01:06:09.234Z,77.36
2022-12-19T01:07:11.057Z,77.32
2022-12-19T01:08:13.694Z,76.69
2022-12-19T01:09:15.734Z,76.25
2022-12-19T01:10:18.383Z,76.61
2022-12-19T01:11:40.853Z,76.86
2022-12-19T01:12:48.380Z,76.64
2022-12-19T01:13:51.034Z,76.63
2022-12-19T01:15:02.836Z,76.19
2022-12-19T01:16:10.210Z,76.18
2022-12-19T01:17:14.769Z,76.63
2022-12-19T01:18:17.688Z,76.30
2022-12-19T01:19:19.632Z,77.09
2022-12-19T01:20:29.323Z,77.32
2022-12-19T01:21:31.506Z,77.35
2022-12-19T01:22:34.111Z,76.93
2022-12-19T01:23:36.686Z,77.70
2022-12-19T01:24:39.571Z,78.18
2022-12-19T01:25:43.159Z,78.73
2022-12-19T01:26:47.553Z,77.93
2022-12-19T01:27:50.170Z,76.81
2022-12-19T01:28:51.805Z,77.48
2022-12-19T01:29:56.024Z,77.11
2022-12-19T01:30:57.650Z,77.13
2022-12-19T01:32:00.422Z,78.60
2022-12-19T01:33:02.137Z,77.53
2022-12-19T01:34:04.945Z,80.07
2022-12-19T01:35:09.204Z,81.13
2022-12-19T01:36:24.411Z,80.42
2022-12-19T01:37:26.079Z,79.49
2022-12-19T01:38:28.624Z,79.06
2022-12-19T01:39:30.415Z,78.68
2022-12-19T01:40:35.885Z,78.04
2022-12-19T01:41:37.780Z,77.79
2022-12-19T01:42:40.779Z,77.41
2022-12-19T01:43:57.036Z,77.91
2022-12-19T01:45:20.948Z,77.22
2022-12-19T01:46:28.440Z,76.22
2022-12-19T01:47:32.866Z,75.04
2022-12-19T01:48:39.594Z,74.96
2022-12-19T01:49:41.393Z,75.13
2022-12-19T01:51:00.668Z,74.11
2022-12-19T01:52:10.312Z,74.28
2022-12-19T01:53:15.958Z,73.34
2022-12-19T01:54:23.526Z,72.98
2022-12-19T01:55:25.682Z,72.55
2022-12-19T01:56:32.700Z,72.38
2022-12-19T01:57:34.881Z,72.72
2022-12-19T01:58:46.394Z,72.34
2022-12-19T01:59:51.583Z,72.67
2022-12-19T02:00:55.873Z,73.42
2022-12-19T02:02:03.219Z,73.54
2022-12-19T02:03:12.418Z,72.72
2022-12-19T02:04:15.059Z,72.47
2022-12-19T02:05:17.721Z,71.99
2022-12-19T02:06:19.858Z,71.78
2022-12-19T02:07:24.639Z,72.53
2022-12-19T02:08:27.605Z,73.63
2022-12-19T02:09:32.421Z,74.22
2022-12-19T02:10:34.354Z,76.43
2022-12-19T02:11:37.124Z,76.20
2022-12-19T02:12:43.105Z,75.43
2022-12-19T02:13:48.015Z,75.01
2022-12-19T02:14:49.924Z,74.29
2022-12-19T02:16:02.004Z,74.35
2022-12-19T02:17:11.500Z,74.16
2022-12-19T02:18:22.447Z,74.67
2022-12-19T02:19:48.363Z,74.66
2022-12-19T02:21:14.376Z,73.81
2022-12-19T02:22:26.826Z,73.18
2022-12-19T02:23:59.536Z,72.75
2022-12-19T02:25:33.770Z,73.74
2022-12-19T02:26:52.479Z,74.01
2022-12-19T02:28:14.566Z,74.51
2022-12-19T02:29:34.448Z,74.89
2022-12-19T02:30:46.478Z,74.75
2022-12-19T02:31:52.377Z,74.98
2022-12-19T02:33:02.862Z,75.79
2022-12-19T02:34:14.303Z,76.00
2022-12-19T02:35:25.539Z,75.94
2022-12-19T02:36:33.995Z,75.87
2022-12-19T02:37:49.628Z,76.55
2022-12-19T02:38:59.231Z,77.74
2022-12-19T02:40:06.486Z,77.57
2022-12-19T02:41:13.988Z,77.23
2022-12-19T02:42:28.428Z,77.35
2022-12-19T02:43:40.361Z,78.09
2022-12-19T02:44:46.111Z,78.12
2022-12-19T02:45:52.198Z,76.98
2022-12-19T02:46:54.536Z,76.26
2022-12-19T02:47:58.024Z,75.31
2022-12-19T02:49:01.398Z,74.55
2022-12-19T02:50:05.177Z,73.99
2022-12-19T02:51:06.818Z,74.54
2022-12-19T02:52:11.059Z,74.52
2022-12-19T02:53:15.025Z,75.30
2022-12-19T02:54:17.999Z,76.11
2022-12-19T02:55:23.776Z,75.04
2022-12-19T02:56:41.188Z,74.72
2022-12-19T02:57:59.636Z,74.59
2022-12-19T02:59:21.621Z,74.08
2022-12-19T03:00:25.560Z,74.98
2022-12-19T03:01:42.321Z,75.04
2022-12-19T03:03:00.337Z,75.72
2022-12-19T03:04:17.185Z,76.42
2022-12-19T03:05:26.460Z,76.18
2022-12-19T03:06:36.631Z,76.33
2022-12-19T03:07:46.245Z,75.85
2022-12-19T03:08:56.506Z,75.79
2022-12-19T03:10:07.853Z,73.14
2022-12-19T03:11:13.342Z,74.49
2022-12-19T03:12:26.731Z,74.78
2022-12-19T03:13:33.183Z,74.53
2022-12-19T03:14:38.970Z,74.63
2022-12-19T03:15:42.833Z,74.99
2022-12-19T03:16:45.964Z,76.61
2022-12-19T03:17:49.512Z,74.85
2022-12-19T03:18:51.753Z,74.50
2022-12-19T03:19:54.364Z,74.96
2022-12-19T03:21:04.967Z,75.97
2022-12-19T03:22:10.716Z,75.78
2022-12-19T03:23:13.478Z,75.44
2022-12-19T03:24:18.520Z,75.26
2022-12-19T03:25:22.474Z,76.08
2022-12-19T03:26:29.636Z,77.48
2022-12-19T03:27:36.334Z,77.20
2022-12-19T03:28:44.223Z,78.10
2022-12-19T03:29:52.171Z,78.06
2022-12-19T03:30:56.267Z,78.53
2022-12-19T03:32:03.152Z,79.05
2022-12-19T03:33:06.049Z,78.78
2022-12-19T03:34:12.348Z,77.62
2022-12-19T03:35:19.552Z,77.07
2022-12-19T03:36:26.046Z,76.89
2022-12-19T03:37:32.801Z,76.44
2022-12-19T03:38:35.720Z,76.39
2022-12-19T03:39:41.741Z,76.68
2022-12-19T03:40:46.011Z,76.59
2022-12-19T03:42:07.904Z,76.75
2022-12-19T03:43:14.531Z,76.53
2022-12-19T03:44:19.218Z,75.65
2022-12-19T03:45:30.702Z,75.95
2022-12-19T03:46:35.512Z,74.99
2022-12-19T03:47:42.943Z,74.66
2022-12-19T03:48:46.374Z,72.99
2022-12-19T03:49:49.797Z,74.26
2022-12-19T03:50:58.004Z,74.66
2022-12-19T03:52:06.215Z,75.27
2022-12-19T03:53:19.407Z,74.63
2022-12-19T03:54:26.850Z,75.20
2022-12-19T03:55:36.430Z,73.65
2022-12-19T03:56:46.767Z,72.98
2022-12-19T03:57:58.660Z,72.19
2022-12-19T03:59:07.691Z,72.71
2022-12-19T04:00:13.406Z,73.13
2022-12-19T04:01:21.637Z,73.03
2022-12-19T04:02:27.075Z,72.60
2022-12-19T04:03:32.881Z,72.35
2022-12-19T04:04:38.155Z,71.89
2022-12-19T04:05:42.880Z,71.10
2022-12-19T04:06:45.846Z,70.96
2022-12-19T04:07:50.270Z,71.16
2022-12-19T04:08:52.223Z,69.92
2022-12-19T04:10:00.555Z,70.54
2022-12-19T04:11:09.797Z,70.97
2022-12-19T04:12:16.917Z,70.01
2022-12-19T04:13:27.760Z,69.86
2022-12-19T04:14:32.403Z,70.30
2022-12-19T04:15:58.501Z,69.98
2022-12-19T04:17:08.711Z,69.58
2022-12-19T04:18:14.681Z,69.59
2022-12-19T04:19:21.504Z,69.76
2022-12-19T04:20:28.034Z,69.28
2022-12-19T04:21:33.858Z,69.41
2022-12-19T04:22:40.975Z,69.78
2022-12-19T04:23:47.853Z,70.01
2022-12-19T04:24:58.399Z,69.33
2022-12-19T04:26:03.780Z,69.25
2022-12-19T04:27:09.481Z,69.46
2022-12-19T04:28:17.480Z,69.36
2022-12-19T04:29:22.527Z,69.58
2022-12-19T04:30:24.403Z,69.82
2022-12-19T04:31:27.265Z,69.93
2022-12-19T04:32:34.718Z,70.17
2022-12-19T04:33:37.436Z,70.04
2022-12-19T04:34:43.632Z,70.74
2022-12-19T04:35:52.243Z,71.08
2022-12-19T04:36:54.958Z,71.14
2022-12-19T04:37:59.174Z,71.11
2022-12-19T04:39:01.984Z,71.62
2022-12-19T04:40:04.351Z,71.83
2022-12-19T04:41:07.344Z,71.82
2022-12-19T04:42:09.007Z,71.48
2022-12-19T04:43:11.774Z,71.67
2022-12-19T04:44:13.456Z,71.44
2022-12-19T04:45:17.192Z,71.56
2022-12-19T04:46:19.041Z,72.14
2022-12-19T04:47:21.710Z,72.64
2022-12-19T04:48:23.407Z,73.51
2022-12-19T04:49:26.229Z,73.42
2022-12-19T04:50:29.351Z,72.75
2022-12-19T04:51:35.522Z,73.30
2022-12-19T04:52:37.239Z,74.92
2022-12-19T04:53:42.766Z,75.37
2022-12-19T04:54:46.703Z,73.87
2022-12-19T04:55:49.643Z,73.27
2022-12-19T04:56:52.729Z,72.20
2022-12-19T04:57:55.483Z,72.65
2022-12-19T04:58:57.959Z,72.39
2022-12-19T05:00:00.662Z,71.85
2022-12-19T05:01:03.077Z,71.52
2022-12-19T05:02:08.754Z,70.96
2022-12-19T05:03:10.619Z,70.30
2022-12-19T05:04:13.388Z,70.13
2022-12-19T05:05:15.482Z,70.86
2022-12-19T05:06:20.414Z,71.21
2022-12-19T05:07:22.047Z,71.23
2022-12-19T05:08:24.720Z,70.93
2022-12-19T05:09:26.489Z,70.79
2022-12-19T05:10:29.086Z,70.62
2022-12-19T05:11:31.011Z,70.37
2022-12-19T05:12:33.835Z,70.35
2022-12-19T05:13:35.922Z,70.54
2022-12-19T05:14:40.987Z,70.32
2022-12-19T05:15:42.652Z,70.12
2022-12-19T05:16:45.624Z,69.75
2022-12-19T05:17:47.279Z,69.42
2022-12-19T05:18:49.962Z,69.45
2022-12-19T05:19:51.666Z,69.67
2022-12-19T05:20:54.611Z,69.47
2022-12-19T05:21:58.783Z,69.05
2022-12-19T05:23:05.022Z,70.96
2022-12-19T05:24:08.704Z,71.38
2022-12-19T05:25:11.353Z,71.24
2022-12-19T05:26:13.316Z,70.61
2022-12-19T05:27:15.986Z,70.87
2022-12-19T05:28:18.317Z,69.89
2022-12-19T05:29:21.175Z,70.00
2022-12-19T05:30:24.428Z,70.12
2022-12-19T05:31:27.087Z,69.55
2022-12-19T05:32:30.389Z,69.90
2022-12-19T05:33:33.119Z,70.38
2022-12-19T05:34:34.900Z,70.38
2022-12-19T05:35:38.250Z,69.88
2022-12-19T05:36:40.108Z,69.80
2022-12-19T05:37:44.304Z,69.41
2022-12-19T05:38:46.088Z,68.85
2022-12-19T05:39:48.809Z,68.17
2022-12-19T05:40:50.438Z,68.62
2022-12-19T05:41:53.123Z,68.76
2022-12-19T05:42:54.769Z,68.68
2022-12-19T05:43:57.763Z,69.24
2022-12-19T05:44:59.436Z,68.31
2022-12-19T05:46:02.138Z,68.57
2022-12-19T05:47:03.976Z,68.76
2022-12-19T05:48:07.258Z,69.09
2022-12-19T05:49:13.095Z,69.74
2022-12-19T05:50:16.308Z,69.68
2022-12-19T05:51:18.124Z,69.79
2022-12-19T05:52:20.900Z,69.83
2022-12-19T05:53:26.082Z,70.13
2022-12-19T05:54:29.167Z,70.34
2022-12-19T05:55:31.673Z,70.38
2022-12-19T05:56:34.313Z,69.57
2022-12-19T05:57:36.521Z,70.48
2022-12-19T05:58:41.226Z,70.06
2022-12-19T05:59:43.070Z,70.36
2022-12-19T06:00:45.856Z,70.48
2022-12-19T06:01:47.599Z,70.87
2022-12-19T06:03:01.932Z,70.72
2022-12-19T06:04:04.282Z,70.50
2022-12-19T06:05:07.652Z,70.85
2022-12-19T06:06:11.723Z,70.83
2022-12-19T06:07:19.216Z,71.23
2022-12-19T06:08:23.893Z,71.79
2022-12-19T06:09:27.000Z,71.91
2022-12-19T06:10:28.841Z,71.63
2022-12-19T06:11:31.508Z,71.96
2022-12-19T06:12:33.273Z,72.14
2022-12-19T06:13:37.091Z,72.13
2022-12-19T06:14:38.879Z,71.85
2022-12-19T06:15:42.177Z,72.28
2022-12-19T06:16:44.110Z,72.79
2022-12-19T06:17:46.901Z,73.09
2022-12-19T06:18:48.842Z,72.44
2022-12-19T06:19:51.672Z,71.71
2022-12-19T06:20:58.317Z,71.88
2022-12-19T06:22:01.140Z,71.75
2022-12-19T06:23:02.844Z,71.08
2022-12-19T06:24:08.010Z,70.68
2022-12-19T06:25:10.052Z,70.21
2022-12-19T06:26:19.019Z,70.05
2022-12-19T06:27:20.962Z,69.92
2022-12-19T06:28:23.648Z,70.32
2022-12-19T06:29:25.474Z,69.86
2022-12-19T06:30:30.664Z,69.37
2022-12-19T06:31:33.408Z,69.78
2022-12-19T06:32:38.188Z,71.56
2022-12-19T06:33:41.850Z,71.90
2022-12-19T06:36:09.593Z,71.27
2022-12-19T06:37:12.116Z,72.08
2022-12-19T06:38:14.894Z,70.52
2022-12-19T06:39:19.009Z,70.93
2022-12-19T06:40:35.718Z,71.84
2022-12-19T06:42:07.409Z,71.87
2022-12-19T06:43:12.100Z,71.64
2022-12-19T06:44:17.179Z,71.24
2022-12-19T06:45:18.804Z,70.68
2022-12-19T06:46:24.537Z,70.43
2022-12-19T06:47:26.285Z,69.95
2022-12-19T06:48:29.383Z,70.21
2022-12-19T06:49:31.253Z,70.90
2022-12-19T06:50:35.961Z,71.28
2022-12-19T06:51:41.652Z,71.09
2022-12-19T06:52:43.451Z,70.74
2022-12-19T06:53:46.244Z,70.68
2022-12-19T06:54:50.343Z,70.63
2022-12-19T06:55:55.694Z,70.70
2022-12-19T06:56:58.492Z,70.00
2022-12-19T06:58:02.456Z,69.77
2022-12-19T06:59:05.314Z,70.44
2022-12-19T07:00:09.994Z,70.93
2022-12-19T07:01:19.076Z,70.70
2022-12-19T07:02:28.470Z,70.74
2022-12-19T07:03:37.255Z,71.24
2022-12-19T07:04:42.227Z,71.10
2022-12-19T07:05:45.245Z,70.47
2022-12-19T07:06:49.360Z,71.17
2022-12-19T07:07:52.134Z,71.28
2022-12-19T07:08:54.015Z,71.24
2022-12-19T07:09:58.125Z,71.36
2022-12-19T07:11:01.260Z,71.82
2022-12-19T07:12:04.656Z,71.56
2022-12-19T07:13:06.272Z,71.09
2022-12-19T07:14:08.990Z,70.38
2022-12-19T07:15:19.529Z,70.36
2022-12-19T07:16:21.203Z,69.56
2022-12-19T07:17:25.684Z,70.01
2022-12-19T07:18:30.343Z,69.64
2022-12-19T07:19:33.983Z,68.98
2022-12-19T07:20:43.350Z,68.43
2022-12-19T07:21:50.992Z,69.07
2022-12-19T07:22:53.921Z,69.06
2022-12-19T07:23:56.721Z,67.91
2022-12-19T07:25:01.237Z,68.62
2022-12-19T07:26:04.830Z,68.30
2022-12-19T07:27:09.068Z,69.01
2022-12-19T07:28:11.940Z,67.93
2022-12-19T07:29:15.937Z,68.44
2022-12-19T07:30:18.638Z,69.21
2022-12-19T07:31:20.315Z,69.81
2022-12-19T07:32:23.300Z,69.70
2022-12-19T07:33:25.074Z,70.52
2022-12-19T07:34:27.754Z,70.96
2022-12-19T07:35:30.879Z,71.76
2022-12-19T07:36:33.581Z,71.56
2022-12-19T07:37:36.889Z,72.30
2022-12-19T07:38:39.502Z,71.79
2022-12-19T07:39:42.322Z,71.30
2022-12-19T07:40:46.621Z,71.47
2022-12-19T07:41:48.310Z,71.50
2022-12-19T07:42:51.071Z,70.56
2022-12-19T07:43:53.934Z,71.52
2022-12-19T07:44:55.649Z,70.95
2022-12-19T07:45:58.369Z,70.88
2022-12-19T07:47:01.325Z,71.86
2022-12-19T07:48:04.201Z,71.87
2022-12-19T07:49:07.180Z,72.31
2022-12-19T07:50:09.729Z,71.51
2022-12-19T07:51:12.639Z,71.38
2022-12-19T07:52:15.574Z,72.29
2022-12-19T07:53:17.338Z,71.97
2022-12-19T07:54:21.446Z,71.72
2022-12-19T07:55:23.156Z,71.53
2022-12-19T07:56:27.621Z,72.61
2022-12-19T07:57:29.427Z,72.91
2022-12-19T07:58:32.168Z,72.11
2022-12-19T07:59:38.797Z,72.49
2022-12-19T08:00:42.259Z,72.40
2022-12-19T08:01:44.535Z,72.78
2022-12-19T08:02:48.088Z,72.62
2022-12-19T08:03:51.191Z,73.11
2022-12-19T08:04:54.119Z,72.60
2022-12-19T08:06:00.419Z,72.74
2022-12-19T08:07:03.480Z,73.46
2022-12-19T08:08:05.472Z,73.21
2022-12-19T08:09:08.146Z,73.38
2022-12-19T08:10:12.646Z,72.66
2022-12-19T08:11:17.280Z,72.66
2022-12-19T08:12:21.245Z,72.15
2022-12-19T08:13:22.991Z,72.73
2022-12-19T08:14:25.690Z,73.50
2022-12-19T08:15:28.296Z,73.80
2022-12-19T08:16:31.147Z,73.47
2022-12-19T08:17:33.798Z,73.66
2022-12-19T08:18:36.485Z,73.19
2022-12-19T08:19:38.178Z,73.05
2022-12-19T08:20:40.840Z,72.93
2022-12-19T08:21:43.469Z,72.80
2022-12-19T08:22:46.397Z,72.47
2022-12-19T08:23:48.037Z,71.48
2022-12-19T08:24:50.722Z,72.15
2022-12-19T08:26:00.277Z,70.68
2022-12-19T08:27:03.036Z,72.57
2022-12-19T08:28:07.367Z,72.60
2022-12-19T08:29:09.313Z,71.92
2022-12-19T08:30:14.091Z,72.22
2022-12-19T08:31:18.767Z,71.82
2022-12-19T08:32:22.006Z,71.85
2022-12-19T08:33:24.717Z,72.47
2022-12-19T08:34:27.027Z,72.50
2022-12-19T08:35:29.778Z,73.41
2022-12-19T08:36:32.805Z,73.78
2022-12-19T08:37:35.447Z,73.82
2022-12-19T08:38:37.344Z,73.60
2022-12-19T08:39:41.110Z,73.94
2022-12-19T08:40:47.374Z,73.55
2022-12-19T08:41:49.289Z,73.70
2022-12-19T08:42:51.963Z,74.47
2022-12-19T08:43:54.969Z,74.14
2022-12-19T08:44:57.728Z,73.93
2022-12-19T08:46:00.917Z,74.19
2022-12-19T08:47:03.775Z,73.33
2022-12-19T08:48:07.722Z,74.84
2022-12-19T08:49:10.334Z,75.75
2022-12-19T08:50:14.271Z,75.20
2022-12-19T08:51:18.307Z,75.02
2022-12-19T08:52:21.056Z,75.12
2022-12-19T08:53:26.443Z,76.21
2022-12-19T08:54:29.652Z,76.42
2022-12-19T08:55:32.319Z,77.61
2022-12-19T08:56:33.933Z,78.39
2022-12-19T08:57:36.622Z,78.41
2022-12-19T08:58:39.534Z,78.90
2022-12-19T08:59:43.490Z,79.10
2022-12-19T09:00:52.095Z,78.34
2022-12-19T09:01:57.562Z,78.84
2022-12-19T09:03:00.625Z,80.62
2022-12-19T09:05:09.259Z,80.67
2022-12-19T09:06:01.831Z,80.62
2022-12-19T09:06:48.647Z,81.24
2022-12-19T09:07:51.207Z,80.69
2022-12-19T09:08:53.838Z,80.46
2022-12-19T09:10:03.156Z,80.18
2022-12-19T09:11:08.174Z,80.32
2022-12-19T09:12:10.891Z,80.12
2022-12-19T09:13:13.465Z,79.93
2022-12-19T09:14:20.852Z,79.94
2022-12-19T09:15:25.724Z,80.39
2022-12-19T09:16:28.652Z,80.98
2022-12-19T09:17:31.249Z,81.00
2022-12-19T09:18:34.873Z,81.75
2022-12-19T09:19:37.414Z,82.28
2022-12-19T09:20:39.773Z,82.93
2022-12-19T09:21:42.333Z,83.35
2022-12-19T09:22:44.930Z,83.58
2022-12-19T09:23:49.722Z,83.37
2022-12-19T09:24:52.361Z,84.70
2022-12-19T09:25:54.046Z,84.60
2022-12-19T09:26:56.706Z,84.12
2022-12-19T09:28:26.816Z,83.88
2022-12-19T09:29:22.470Z,82.86
2022-12-19T09:30:26.566Z,82.73
2022-12-19T09:31:30.049Z,82.13
2022-12-19T09:32:32.691Z,82.19
2022-12-19T09:33:42.956Z,83.50
2022-12-19T09:34:46.028Z,84.05
2022-12-19T09:35:50.056Z,83.73
2022-12-19T09:36:53.877Z,83.40
2022-12-19T09:38:00.035Z,86.37
2022-12-19T09:39:06.232Z,85.99
2022-12-19T09:40:16.789Z,86.38
2022-12-19T09:41:57.062Z,86.51
2022-12-19T09:43:12.149Z,86.05
2022-12-19T09:44:30.703Z,85.71
2022-12-19T09:45:41.764Z,85.23
2022-12-19T09:46:49.382Z,84.47
2022-12-19T09:47:57.963Z,84.12
2022-12-19T09:49:02.954Z,84.71
2022-12-19T09:50:22.411Z,85.24
2022-12-19T09:51:35.311Z,85.55
2022-12-19T09:52:41.034Z,86.11
2022-12-19T09:53:59.489Z,87.20
2022-12-19T09:55:05.736Z,86.61
2022-12-19T09:56:15.828Z,86.48
2022-12-19T09:57:24.139Z,86.82
2022-12-19T09:58:38.640Z,87.36
2022-12-19T09:59:49.683Z,88.04
2022-12-19T10:01:00.185Z,88.17
2022-12-19T10:02:15.899Z,88.05
2022-12-19T10:03:25.213Z,87.33
2022-12-19T10:04:30.878Z,87.17
2022-12-19T10:07:11.441Z,87.46
2022-12-19T10:07:22.103Z,85.92
2022-12-19T10:08:32.625Z,85.79
2022-12-19T10:11:08.251Z,85.30
2022-12-19T10:12:41.396Z,84.94
2022-12-19T10:12:51.147Z,84.64
2022-12-19T10:14:17.446Z,85.52
2022-12-19T10:15:27.014Z,85.47
2022-12-19T10:17:01.739Z,86.15
2022-12-19T10:18:22.058Z,84.78
2022-12-19T10:19:34.759Z,84.43
2022-12-19T10:20:42.429Z,83.57
2022-12-19T10:22:18.114Z,83.85
2022-12-19T10:23:36.502Z,83.84
2022-12-19T10:25:08.103Z,83.30
2022-12-19T10:26:19.423Z,84.72
2022-12-19T10:27:35.162Z,85.25
2022-12-19T10:28:53.177Z,84.99
2022-12-19T10:30:04.178Z,84.94
2022-12-19T10:31:21.573Z,86.76
2022-12-19T10:32:36.616Z,86.78
2022-12-19T10:33:45.975Z,86.60
2022-12-19T10:34:50.753Z,85.92
2022-12-19T10:36:02.081Z,85.13
2022-12-19T10:37:23.108Z,86.39
2022-12-19T10:38:38.359Z,85.67
2022-12-19T10:39:51.967Z,86.10
2022-12-19T10:41:07.469Z,85.37
2022-12-19T10:42:16.857Z,84.70
2022-12-19T10:43:33.532Z,84.10
2022-12-19T10:44:41.149Z,82.42
2022-12-19T10:45:47.072Z,82.74
2022-12-19T10:46:51.526Z,82.92
2022-12-19T10:47:59.147Z,82.67
2022-12-19T10:49:02.340Z,81.60
2022-12-19T10:50:09.677Z,81.47
2022-12-19T10:51:14.564Z,82.78
2022-12-19T10:52:53.405Z,85.60
2022-12-19T10:53:56.997Z,86.82
2022-12-19T10:54:59.787Z,86.33
2022-12-19T10:56:12.416Z,85.60
2022-12-19T10:57:25.567Z,85.12
2022-12-19T10:58:33.297Z,85.55
2022-12-19T10:59:35.871Z,86.03
2022-12-19T11:00:38.601Z,84.85
2022-12-19T11:01:41.635Z,84.21
2022-12-19T11:02:45.611Z,83.00
2022-12-19T11:03:52.720Z,82.84
2022-12-19T11:04:55.763Z,82.40
2022-12-19T11:06:02.572Z,81.78
2022-12-19T11:07:21.617Z,81.87
2022-12-19T11:08:27.289Z,83.93
2022-12-19T11:09:31.947Z,85.55
2022-12-19T11:13:57.337Z,87.51
2022-12-19T11:15:23.513Z,86.58
2022-12-19T11:19:01.819Z,84.89
2022-12-19T11:19:44.229Z,84.74
2022-12-19T11:24:38.743Z,85.83
2022-12-19T11:26:15.794Z,85.29
2022-12-19T11:29:19.609Z,85.08
2022-12-19T11:29:31.263Z,84.63
2022-12-19T11:29:38.940Z,85.01
2022-12-19T11:29:39.898Z,85.39
2022-12-19T11:30:35.302Z,85.82
2022-12-19T11:30:35.458Z,84.66
2022-12-19T11:30:43.753Z,85.73
2022-12-19T11:32:48.661Z,85.41
2022-12-19T11:33:54.655Z,86.63
2022-12-19T11:35:03.012Z,85.85
2022-12-19T11:36:07.111Z,85.85
2022-12-19T11:37:19.180Z,85.96
2022-12-19T11:38:33.632Z,85.72
2022-12-19T11:39:45.520Z,85.63
2022-12-19T11:40:51.540Z,86.71
2022-12-19T11:42:01.706Z,87.70
2022-12-19T11:44:37.272Z,87.01
2022-12-19T11:45:52.603Z,87.16
2022-12-19T11:47:00.603Z,87.35
2022-12-19T11:48:10.487Z,85.97
2022-12-19T11:49:26.618Z,86.64
2022-12-19T11:50:33.113Z,86.39
2022-12-19T11:51:40.056Z,85.58
2022-12-19T11:53:07.766Z,84.65
2022-12-19T11:54:18.896Z,85.42
2022-12-19T11:55:27.015Z,85.94
2022-12-19T11:56:30.296Z,85.32
2022-12-19T11:57:32.257Z,85.67
2022-12-19T11:58:36.076Z,84.65
2022-12-19T11:59:41.169Z,84.74
2022-12-19T12:00:51.711Z,83.81
2022-12-19T12:02:10.231Z,84.67
2022-12-19T12:03:38.180Z,84.78
2022-12-19T12:05:10.709Z,84.18
2022-12-19T12:06:17.236Z,84.17
2022-12-19T12:07:27.582Z,83.60
2022-12-19T12:12:21.610Z,85.16
2022-12-19T12:14:02.040Z,85.78
2022-12-19T12:18:47.839Z,85.79
2022-12-19T12:20:40.163Z,86.14
2022-12-19T12:25:07.011Z,84.83
2022-12-19T12:28:57.232Z,85.47
2022-12-19T12:29:03.259Z,85.06
2022-12-19T12:31:23.085Z,85.98
2022-12-19T12:31:23.332Z,85.95
2022-12-19T12:31:29.544Z,85.85
2022-12-19T12:31:40.355Z,87.65
2022-12-19T12:31:41.757Z,85.63
2022-12-19T12:32:02.267Z,86.10
2022-12-19T12:32:06.517Z,86.54
2022-12-19T12:35:05.927Z,88.66
2022-12-19T12:35:46.560Z,90.33
2022-12-19T12:35:51.348Z,90.25
2022-12-19T12:38:59.810Z,91.79
2022-12-19T12:40:22.988Z,92.43
2022-12-19T12:41:58.643Z,91.69
2022-12-19T12:43:13.978Z,91.94
2022-12-19T12:44:17.205Z,91.48
2022-12-19T12:45:32.309Z,92.03
2022-12-19T12:46:40.864Z,91.63
2022-12-19T12:47:47.439Z,91.85
2022-12-19T12:48:55.445Z,91.80
2022-12-19T12:50:02.225Z,91.03
2022-12-19T12:51:06.934Z,90.76
2022-12-19T12:52:17.110Z,91.24
2022-12-19T12:53:25.643Z,91.64
2022-12-19T12:54:37.781Z,91.01
2022-12-19T12:55:43.041Z,90.35
2022-12-19T12:56:48.532Z,90.94
2022-12-19T12:57:51.990Z,91.20
2022-12-19T12:59:21.641Z,90.27
2022-12-19T13:00:27.665Z,91.21
2022-12-19T13:01:35.665Z,92.09
2022-12-19T13:02:39.052Z,91.97
2022-12-19T13:03:43.559Z,92.42
2022-12-19T13:05:00.626Z,91.97
2022-12-19T13:06:07.987Z,91.92
2022-12-19T13:07:29.752Z,91.04
2022-12-19T13:08:35.671Z,91.11
2022-12-19T13:09:38.534Z,91.58
2022-12-19T13:10:53.956Z,92.20
2022-12-19T13:12:20.928Z,92.86
2022-12-19T13:13:54.758Z,93.28
2022-12-19T13:15:20.253Z,92.75
2022-12-19T13:16:49.749Z,93.75
2022-12-19T13:18:09.373Z,93.13
2022-12-19T13:19:21.002Z,92.70
2022-12-19T13:20:48.629Z,92.79
2022-12-19T13:22:19.811Z,92.39
2022-12-19T13:23:23.958Z,92.99
2022-12-19T13:24:26.693Z,92.61
2022-12-19T13:25:52.026Z,92.52
2022-12-19T13:26:54.670Z,91.54
2022-12-19T13:27:59.117Z,92.19
2022-12-19T13:29:27.103Z,92.12
2022-12-19T13:30:50.092Z,91.61
2022-12-19T13:32:13.453Z,90.99
2022-12-19T13:33:16.885Z,91.68
2022-12-19T13:34:20.258Z,92.40
2022-12-19T13:39:35.869Z,91.47
2022-12-19T13:40:01.314Z,91.96
2022-12-19T13:40:01.588Z,90.74
2022-12-19T13:40:32.683Z,91.89
2022-12-19T13:42:01.292Z,91.32
2022-12-19T13:43:33.166Z,91.73
2022-12-19T13:44:40.857Z,91.45
2022-12-19T13:45:50.757Z,90.12
2022-12-19T13:46:56.111Z,89.67
2022-12-19T13:48:02.125Z,89.98
2022-12-19T13:49:09.190Z,89.04
2022-12-19T13:50:24.688Z,89.02
2022-12-19T13:51:41.211Z,87.79
2022-12-19T13:52:49.407Z,88.11
2022-12-19T13:53:59.351Z,87.53
2022-12-19T13:55:02.742Z,87.50
2022-12-19T13:56:12.498Z,87.18
2022-12-19T13:57:22.462Z,87.82
2022-12-19T13:58:30.623Z,87.34
2022-12-19T13:59:38.871Z,87.89
2022-12-19T14:00:51.939Z,87.54
2022-12-19T14:01:57.160Z,86.24
2022-12-19T14:02:59.505Z,87.63
2022-12-19T14:04:07.991Z,88.10
2022-12-19T14:05:34.162Z,87.20
2022-12-19T14:06:47.173Z,87.09
2022-12-19T14:07:50.068Z,89.15
2022-12-19T14:09:37.323Z,89.11
2022-12-19T14:11:34.574Z,89.44
2022-12-19T14:13:42.558Z,88.99
2022-12-19T14:13:51.007Z,88.49
2022-12-19T14:15:14.087Z,88.59
2022-12-19T14:16:19.768Z,88.87
2022-12-19T14:17:23.734Z,88.82
2022-12-19T14:18:44.629Z,89.56
2022-12-19T14:19:51.451Z,90.10
2022-12-19T14:22:10.785Z,90.50
2022-12-19T14:22:38.225Z,89.75
2022-12-19T14:23:44.164Z,88.27
2022-12-19T14:24:55.089Z,89.98
2022-12-19T14:28:24.150Z,90.24
2022-12-19T14:28:26.982Z,91.46
2022-12-19T14:29:32.039Z,92.48
2022-12-19T14:30:50.380Z,92.06
2022-12-19T14:32:23.991Z,92.04
2022-12-19T14:33:46.019Z,90.64
2022-12-19T14:36:04.843Z,91.86
2022-12-19T14:36:15.968Z,92.94
2022-12-19T14:37:37.154Z,93.52
2022-12-19T14:39:22.476Z,93.45
2022-12-19T14:40:25.567Z,93.33
2022-12-19T14:42:00.974Z,93.51
2022-12-19T14:43:57.894Z,93.90
2022-12-19T14:52:08.675Z,93.93
2022-12-19T14:54:00.624Z,93.23
2022-12-19T14:54:03.654Z,94.07
2022-12-19T14:54:04.129Z,94.19
2022-12-19T14:54:21.095Z,93.82
2022-12-19T14:54:41.911Z,93.55
2022-12-19T14:56:12.351Z,93.76
2022-12-19T14:57:06.116Z,94.79